Time;durP1;ratioP1;P1;durP2;ratioP2;P2;SDS_P1;SDS_P2;PMS_P1;PMS_P2;Temp;Humidity;BMP_temperature;BMP_pressure;BME280_temperature;BME280_humidity;BME280_pressure;Samples;Min_cycle;Max_cycle;Signal;HPM_P1;HPM_P2
2022/09/26 00:01:54;;;;;;;10.50;5.50;;;;;;;11.52;89.86;97538.28;4973655;28;20034;-91
2022/09/26 00:04:26;;;;;;;6.97;4.85;;;;;;;11.55;90.27;97539.66;4976691;28;20113;-91
2022/09/26 00:07:01;;;;;;;7.35;5.65;;;;;;;11.49;90.47;97540.53;4974498;28;20130;-93
2022/09/26 00:09:30;;;;;;;7.50;5.72;;;;;;;11.46;90.84;97518.16;4975112;28;20047;-91
2022/09/26 00:11:58;;;;;;;6.80;5.10;;;;;;;11.59;90.84;97532.16;4972619;28;20074;-92
2022/09/26 00:14:29;;;;;;;7.80;5.93;;;;;;;11.67;90.08;97529.22;4936821;29;20054;-91
2022/09/26 00:16:55;;;;;;;10.57;6.22;;;;;;;11.62;90.27;97518.59;4954077;28;20423;-91
2022/09/26 00:19:23;;;;;;;9.38;6.13;;;;;;;11.60;90.12;97529.31;4954243;28;20043;-91
2022/09/26 00:21:50;;;;;;;8.02;5.88;;;;;;;11.76;91.22;97526.09;4956565;28;20101;-89
2022/09/26 00:24:17;;;;;;;8.10;6.10;;;;;;;11.68;90.47;97521.13;4973276;28;20479;-92
2022/09/26 00:26:46;;;;;;;8.45;6.43;;;;;;;11.49;90.43;97512.47;4972256;28;20142;-91
2022/09/26 00:29:14;;;;;;;9.77;6.72;;;;;;;11.44;91.54;97514.13;4972163;28;20546;-92
2022/09/26 00:31:44;;;;;;;9.32;6.25;;;;;;;11.53;91.71;97529.38;4940552;28;20082;-91
2022/09/26 00:34:15;;;;;;;10.50;6.80;;;;;;;11.50;92.22;97527.19;4952512;29;20606;-92
2022/09/26 00:36:43;;;;;;;9.57;6.45;;;;;;;11.46;91.77;97522.63;4952093;29;20403;-92
2022/09/26 00:39:13;;;;;;;9.63;6.80;;;;;;;11.39;91.96;97525.28;4954566;29;20522;-91
2022/09/26 00:41:41;;;;;;;11.57;6.57;;;;;;;11.18;92.32;97523.91;4971153;28;20039;-91
2022/09/26 00:44:49;;;;;;;8.93;6.10;;;;;;;11.34;92.56;97532.25;4976341;28;20046;-92
2022/09/26 00:47:41;;;;;;;9.57;6.40;;;;;;;11.31;93.29;97532.66;4940535;28;20525;-89
2022/09/26 00:50:23;;;;;;;10.00;6.35;;;;;;;11.28;93.26;97540.97;4971364;28;20055;-90
2022/09/26 00:52:57;;;;;;;9.40;6.65;;;;;;;11.25;93.13;97526.47;4948840;28;20114;-92
2022/09/26 00:55:36;;;;;;;9.00;6.82;;;;;;;11.30;93.01;97534.50;4967063;28;20486;-91
2022/09/26 00:58:13;;;;;;;8.88;6.63;;;;;;;11.19;93.24;97516.81;4971823;28;20082;-92
2022/09/26 01:00:43;;;;;;;10.00;7.57;;;;;;;11.15;93.17;97536.63;4956061;28;20047;-90
2022/09/26 01:03:13;;;;;;;9.03;7.93;;;;;;;11.09;94.00;97513.88;4972745;28;20039;-91
2022/09/26 01:05:40;;;;;;;13.25;7.90;;;;;;;11.04;93.59;97508.50;4972317;28;20487;-90
2022/09/26 01:08:07;;;;;;;9.60;6.90;;;;;;;11.23;93.65;97525.88;4972648;28;20415;-90
2022/09/26 01:10:39;;;;;;;9.43;7.80;;;;;;;11.19;93.99;97501.06;4971964;28;20136;-92
2022/09/26 01:13:09;;;;;;;10.27;7.63;;;;;;;11.28;93.50;97526.03;4972900;28;20446;-92
2022/09/26 01:15:36;;;;;;;9.13;6.72;;;;;;;11.27;93.23;97524.41;4972398;28;20043;-92
2022/09/26 01:18:02;;;;;;;11.00;7.28;;;;;;;11.21;93.24;97531.31;4973981;28;20063;-92
2022/09/26 01:20:47;;;;;;;11.63;7.40;;;;;;;11.08;93.34;97504.41;4976941;28;20051;-93
2022/09/26 01:23:58;;;;;;;12.55;7.97;;;;;;;11.15;93.37;97526.94;4956893;28;20053;-93
2022/09/26 01:26:56;;;;;;;11.60;8.30;;;;;;;10.97;93.50;97504.13;4955468;29;20138;-92
2022/09/26 01:29:52;;;;;;;11.93;7.45;;;;;;;11.16;93.63;97517.28;4973797;28;20035;-92
2022/09/26 01:32:50;;;;;;;10.75;7.95;;;;;;;11.18;94.08;97509.97;4974466;28;20478;-91
2022/09/26 01:35:47;;;;;;;13.38;7.13;;;;;;;11.24;93.06;97514.34;4951030;28;20055;-90
2022/09/26 01:39:12;;;;;;;11.15;7.22;;;;;;;11.30;93.19;97516.09;4959534;28;20051;-90
2022/09/26 01:41:49;;;;;;;10.50;7.72;;;;;;;11.24;93.20;97514.34;4934371;29;20048;-91
2022/09/26 01:44:45;;;;;;;10.07;7.53;;;;;;;11.31;93.37;97511.66;4973813;28;20054;-90
2022/09/26 01:47:47;;;;;;;15.32;7.68;;;;;;;11.37;92.95;97522.09;4976939;28;20073;-91
2022/09/26 01:50:42;;;;;;;12.27;7.75;;;;;;;11.40;93.05;97519.03;4973619;28;20057;-90
2022/09/26 01:53:48;;;;;;;9.38;6.53;;;;;;;11.21;92.87;97499.03;4973529;28;20450;-89
2022/09/26 01:56:35;;;;;;;11.40;7.60;;;;;;;11.28;92.36;97523.41;4957654;28;20043;-90
2022/09/26 01:59:31;;;;;;;12.30;8.05;;;;;;;11.17;92.54;97503.13;4975457;28;20046;-90
2022/09/26 02:02:08;;;;;;;16.17;7.70;;;;;;;11.17;92.75;97513.63;4971733;28;20058;-91
2022/09/26 02:04:45;;;;;;;11.25;7.78;;;;;;;11.15;93.32;97515.66;4976048;28;20051;-92
2022/09/26 02:07:23;;;;;;;13.27;8.50;;;;;;;11.24;93.20;97519.59;4978089;28;20129;-90
2022/09/26 02:10:01;;;;;;;10.75;7.55;;;;;;;11.17;92.79;97503.13;4977404;28;20042;-90
2022/09/26 02:12:40;;;;;;;13.43;7.40;;;;;;;11.29;93.03;97509.25;4976769;28;20034;-90
2022/09/26 02:15:19;;;;;;;10.68;7.20;;;;;;;11.28;92.73;97506.84;4975672;28;20043;-93
2022/09/26 02:18:01;;;;;;;12.20;6.68;;;;;;;11.29;92.81;97496.13;4979020;28;20074;-90
2022/09/26 02:20:39;;;;;;;10.20;7.38;;;;;;;11.32;91.97;97497.50;4980364;28;20123;-91
2022/09/26 02:23:13;;;;;;;9.55;6.80;;;;;;;11.43;91.80;97502.84;4960714;28;20137;-91
2022/09/26 02:25:40;;;;;;;10.93;7.00;;;;;;;11.29;90.93;97483.00;4977889;28;20410;-92
2022/09/26 02:28:07;;;;;;;7.85;6.80;;;;;;;11.17;91.38;97484.75;4976524;28;20450;-93
2022/09/26 02:30:35;;;;;;;12.50;8.00;;;;;;;11.15;91.63;97497.28;4975607;28;20075;-93
2022/09/26 02:33:02;;;;;;;11.75;6.93;;;;;;;11.16;92.23;97494.44;4978432;28;20070;-90
2022/09/26 02:38:16;;;;;;;9.40;7.13;;;;;;;11.21;91.91;97478.03;4977632;28;20047;-91
2022/09/26 02:40:54;;;;;;;9.75;7.07;;;;;;;11.28;92.00;97489.28;4976997;28;20042;-90
2022/09/26 02:43:47;;;;;;;11.93;8.40;;;;;;;11.24;91.67;97490.72;4959749;29;20090;-91
2022/09/26 02:46:42;;;;;;;11.18;7.20;;;;;;;11.26;92.08;97492.09;4959073;29;20954;-92
2022/09/26 02:49:36;;;;;;;10.73;7.00;;;;;;;11.23;91.97;97481.25;4954831;28;20046;-91
2022/09/26 02:52:18;;;;;;;10.48;7.70;;;;;;;11.30;92.24;97484.59;4976673;28;20051;-90
2022/09/26 02:55:06;;;;;;;10.85;7.28;;;;;;;11.20;91.66;97471.19;4975835;28;20031;-91
2022/09/26 02:58:05;;;;;;;11.27;6.85;;;;;;;11.17;91.62;97471.63;4960853;28;20042;-92
2022/09/26 03:00:54;;;;;;;13.68;7.88;;;;;;;11.22;91.64;97471.78;4928388;28;20042;-92
2022/09/26 03:03:34;;;;;;;11.48;6.78;;;;;;;11.09;91.25;97448.28;4941243;28;20070;-92
2022/09/26 03:06:10;;;;;;;12.55;6.35;;;;;;;11.21;91.28;97467.53;4973229;28;20133;-92
2022/09/26 03:08:50;;;;;;;9.15;7.20;;;;;;;11.17;91.37;97471.63;4976633;28;20047;-92
2022/09/26 03:11:26;;;;;;;13.00;6.88;;;;;;;11.03;90.97;97446.53;4954236;28;20475;-92
2022/09/26 03:13:56;;;;;;;9.93;6.63;;;;;;;11.05;90.73;97447.94;4959466;28;20062;-91
2022/09/26 03:16:31;;;;;;;8.27;6.32;;;;;;;11.19;91.54;97453.84;4973114;28;20077;-90
2022/09/26 03:19:09;;;;;;;12.18;7.50;;;;;;;11.24;92.05;97452.16;4973859;28;20511;-91
2022/09/26 03:21:38;;;;;;;9.77;6.80;;;;;;;11.11;90.57;97446.25;4957054;28;20102;-91
2022/09/26 03:24:09;;;;;;;11.77;7.32;;;;;;;11.10;91.52;97455.16;4974226;28;20046;-90
2022/09/26 03:26:40;;;;;;;11.05;6.85;;;;;;;10.95;90.66;97451.03;4953780;29;20102;-91
2022/09/26 03:29:09;;;;;;;;;;;;;;;11.09;90.82;97453.53;4949657;28;20046;-91
2022/09/26 03:31:40;;;;;;;13.45;7.18;;;;;;;11.06;91.16;97453.97;4974365;28;20349;-91
2022/09/26 03:34:09;;;;;;;14.00;7.50;;;;;;;11.09;90.85;97446.47;4956626;28;20043;-92
2022/09/26 03:36:38;;;;;;;9.48;7.20;;;;;;;10.98;90.79;97434.09;4956852;28;20046;-91
2022/09/26 03:39:05;;;;;;;10.75;7.38;;;;;;;11.15;90.94;97450.03;4973756;28;20109;-91
2022/09/26 03:41:33;;;;;;;11.10;6.78;;;;;;;11.02;90.38;97421.31;4969573;28;20518;-90
2022/09/26 03:44:08;;;;;;;11.27;7.78;;;;;;;11.07;90.10;97435.38;4976089;28;20064;-92
2022/09/26 03:46:35;;;;;;;12.98;7.35;;;;;;;11.06;89.82;97425.13;4956551;28;20606;-90
2022/09/26 03:49:05;;;;;;;12.18;7.28;;;;;;;11.08;90.21;97425.69;4969257;28;20494;-91
2022/09/26 03:51:32;;;;;;;9.68;7.15;;;;;;;11.11;90.17;97420.00;4973550;28;20082;-91
2022/09/26 03:53:59;;;;;;;11.55;7.90;;;;;;;11.15;89.63;97413.28;4971949;28;20049;-90
2022/09/26 03:56:26;;;;;;;11.45;7.82;;;;;;;11.14;89.84;97424.81;4955441;28;20426;-92
2022/09/26 03:58:55;;;;;;;13.52;7.82;;;;;;;11.13;89.74;97425.84;4973114;28;20064;-91
2022/09/26 04:01:26;;;;;;;13.10;8.18;;;;;;;11.25;89.98;97424.09;4971573;28;20085;-91
2022/09/26 04:03:56;;;;;;;12.60;8.27;;;;;;;11.23;89.69;97413.00;4971917;28;20043;-92
2022/09/26 04:06:26;;;;;;;13.02;7.82;;;;;;;11.30;89.84;97416.34;4958161;28;20054;-92
2022/09/26 04:08:55;;;;;;;12.95;8.00;;;;;;;11.49;89.85;97430.25;4972754;28;20047;-92
2022/09/26 04:11:23;;;;;;;11.45;7.45;;;;;;;11.51;89.30;97436.91;4956560;28;20412;-92
2022/09/26 04:13:52;;;;;;;11.57;7.82;;;;;;;11.45;90.01;97414.13;4956300;28;20518;-91
2022/09/26 04:16:22;;;;;;;14.10;8.15;;;;;;;11.40;89.08;97407.97;4973321;28;20051;-91
2022/09/26 04:18:56;;;;;;;11.18;7.65;;;;;;;11.52;90.40;97417.50;4972458;28;20038;-92
2022/09/26 04:21:26;;;;;;;14.30;8.15;;;;;;;11.42;89.21;97422.47;4973852;28;20419;-92
2022/09/26 04:23:56;;;;;;;11.98;8.38;;;;;;;11.43;90.04;97424.06;4974052;28;20522;-91
2022/09/26 04:26:26;;;;;;;15.25;8.13;;;;;;;11.34;89.52;97409.66;4971282;28;20503;-91
2022/09/26 04:28:56;;;;;;;13.23;7.85;;;;;;;11.28;89.20;97404.47;4975718;28;20499;-90
2022/09/26 04:31:30;;;;;;;12.70;8.32;;;;;;;11.21;89.76;97400.09;4956534;28;20126;-91
2022/09/26 04:33:57;;;;;;;15.07;7.75;;;;;;;11.28;89.92;97405.28;4975318;28;20050;-92
2022/09/26 04:36:32;;;;;;;14.82;8.07;;;;;;;11.18;89.17;97394.50;4973611;28;20046;-91
2022/09/26 04:38:59;;;;;;;13.63;7.82;;;;;;;11.02;89.13;97401.13;4969758;28;20134;-91
2022/09/26 04:41:30;;;;;;;13.90;7.65;;;;;;;10.99;90.08;97402.38;4937182;28;20051;-91
2022/09/26 04:44:18;;;;;;;16.10;7.95;;;;;;;10.83;89.23;97402.94;4957134;28;20109;-91
2022/09/26 04:46:44;;;;;;;13.57;7.65;;;;;;;10.89;90.87;97403.91;4955561;28;20493;-92
2022/09/26 04:49:16;;;;;;;11.32;8.02;;;;;;;10.94;90.15;97404.84;4960680;28;20129;-91
2022/09/26 04:51:47;;;;;;;11.90;8.30;;;;;;;10.80;89.72;97394.72;4955669;28;20047;-92
2022/09/26 04:54:17;;;;;;;13.80;8.07;;;;;;;11.01;91.02;97394.28;4971909;28;20498;-92
2022/09/26 04:56:46;;;;;;;12.48;7.88;;;;;;;11.04;90.70;97387.81;4971791;28;20043;-92
2022/09/26 04:59:13;;;;;;;12.02;7.20;;;;;;;11.09;89.03;97404.47;4939188;29;20455;-93
2022/09/26 05:01:40;;;;;;;11.30;7.82;;;;;;;11.03;89.51;97394.06;4973881;28;20545;-92
2022/09/26 05:04:08;;;;;;;10.68;7.72;;;;;;;10.92;89.28;97385.91;4955365;28;20106;-93
2022/09/26 05:06:35;;;;;;;12.35;7.43;;;;;;;10.92;89.31;97391.16;4943739;28;20051;-92
2022/09/26 05:09:03;;;;;;;12.32;7.07;;;;;;;11.09;89.73;97403.66;4971868;28;20046;-93
2022/09/26 05:11:31;;;;;;;11.93;8.02;;;;;;;10.95;89.54;97385.44;4971355;28;20050;-93
2022/09/26 05:13:58;;;;;;;13.23;7.28;;;;;;;10.77;89.31;97388.06;4956568;28;20039;-92
2022/09/26 05:16:27;;;;;;;14.63;8.00;;;;;;;10.83;89.61;97402.94;4971940;28;20046;-91
2022/09/26 05:18:55;;;;;;;10.93;7.22;;;;;;;10.64;89.74;97399.50;4956609;28;20082;-91
2022/09/26 05:21:25;;;;;;;11.50;7.60;;;;;;;10.79;89.95;97409.63;4975882;28;20090;-92
2022/09/26 05:26:44;;;;;;;14.30;7.88;;;;;;;10.89;90.38;97401.28;4944140;29;20128;-92
2022/09/26 05:29:12;;;;;;;10.10;6.93;;;;;;;10.94;89.35;97404.84;4972409;28;20842;-93
2022/09/26 05:31:39;;;;;;;10.95;8.25;;;;;;;10.96;89.81;97402.78;4957644;28;20145;-92
2022/09/26 05:34:09;;;;;;;12.20;7.63;;;;;;;10.97;89.54;97409.66;4955425;28;20499;-93
2022/09/26 05:36:43;;;;;;;11.05;7.78;;;;;;;10.85;88.52;97410.59;4957736;28;20050;-92
2022/09/26 05:42:00;;;;;;;10.85;7.25;;;;;;;10.84;89.29;97409.00;4973226;28;20050;-92
2022/09/26 05:44:40;;;;;;;10.88;7.10;;;;;;;10.72;88.74;97398.41;4973210;28;20039;-93
2022/09/26 05:47:07;;;;;;;11.13;7.72;;;;;;;10.64;88.23;97394.25;4969547;28;20103;-92
2022/09/26 05:49:37;;;;;;;10.25;7.30;;;;;;;10.45;88.84;97390.00;4939198;29;20043;-91
2022/09/26 05:52:04;;;;;;;11.00;7.03;;;;;;;10.38;89.64;97379.59;4968412;28;20502;-93
2022/09/26 05:54:33;;;;;;;10.63;7.78;;;;;;;10.47;90.03;97387.16;4958650;28;20043;-93
2022/09/26 05:57:05;;;;;;;10.50;7.50;;;;;;;10.58;89.92;97402.19;4954319;28;20042;-94
2022/09/26 05:59:32;;;;;;;10.63;7.80;;;;;;;10.37;89.68;97391.06;4972120;28;20038;-93
2022/09/26 06:02:04;;;;;;;13.88;7.65;;;;;;;10.58;90.03;97404.81;4972162;28;20101;-94
2022/09/26 06:04:31;;;;;;;12.00;7.47;;;;;;;10.55;88.30;97385.06;4975982;28;20085;-93
2022/09/26 06:06:58;;;;;;;12.80;7.97;;;;;;;10.70;88.26;97393.38;4975304;28;20089;-93
2022/09/26 06:09:30;;;;;;;14.25;7.75;;;;;;;10.72;87.29;97395.78;4959584;28;20054;-93
2022/09/26 06:11:59;;;;;;;12.15;8.13;;;;;;;10.67;87.68;97382.53;4974136;28;20046;-94
2022/09/26 06:14:27;;;;;;;9.93;7.38;;;;;;;10.77;88.94;97380.19;4975707;28;20038;-94
2022/09/26 06:16:53;;;;;;;14.65;7.63;;;;;;;10.87;88.86;97383.13;4959212;28;20043;-95
2022/09/26 06:19:20;;;;;;;12.23;8.13;;;;;;;10.87;87.12;97388.38;4960567;28;20109;-93
2022/09/26 06:21:49;;;;;;;10.63;7.80;;;;;;;10.86;87.66;97376.28;4978068;28;20053;-93
2022/09/26 06:24:29;;;;;;;;;;;;;;;;;;;;;
2022/09/26 06:27:15;;;;;;;13.77;7.45;;;;;;;10.87;85.47;97380.50;4958957;28;20055;-95
2022/09/26 06:29:45;;;;;;;11.82;6.78;;;;;;;10.84;86.67;97380.94;4959265;28;20442;-95
2022/09/26 06:32:21;;;;;;;11.98;7.78;;;;;;;10.98;86.09;97389.47;4960830;28;20046;-94
2022/09/26 06:34:50;;;;;;;13.88;8.85;;;;;;;10.97;86.73;97361.63;4960010;28;20411;-94
2022/09/26 06:37:19;;;;;;;12.50;7.63;;;;;;;11.10;85.52;97371.97;4960701;28;20145;-96
2022/09/26 06:39:50;;;;;;;12.43;8.10;;;;;;;11.24;85.22;97365.53;4976223;28;20098;-94
2022/09/26 06:42:28;;;;;;;11.35;7.78;;;;;;;11.45;85.95;97368.69;4936968;28;20294;-93
2022/09/26 06:45:13;;;;;;;12.75;7.13;;;;;;;11.61;85.51;97367.28;4972888;28;20039;-92
2022/09/26 06:47:42;;;;;;;13.93;7.70;;;;;;;11.69;85.26;97364.31;4974070;28;20137;-94
2022/09/26 06:50:09;;;;;;;13.60;8.00;;;;;;;11.68;84.08;97339.09;4958858;28;20058;-93
2022/09/26 06:52:36;;;;;;;13.65;7.53;;;;;;;11.75;84.03;97337.16;4955020;28;20137;-91
2022/09/26 06:55:07;;;;;;;11.13;7.22;;;;;;;11.87;84.01;97343.25;4958363;28;20481;-93
2022/09/26 06:57:39;;;;;;;11.25;8.05;;;;;;;12.00;82.58;97339.66;4972328;28;20125;-92
2022/09/26 07:00:11;;;;;;;11.48;7.97;;;;;;;12.01;82.40;97331.53;4974412;28;20042;-93
2022/09/26 07:02:48;;;;;;;;;;;;;;;12.16;81.62;97356.56;4954713;28;20081;-92
2022/09/26 07:05:14;;;;;;;10.93;7.97;;;;;;;12.27;82.10;97363.66;4973950;28;19922;-92
2022/09/26 07:07:44;;;;;;;12.07;8.23;;;;;;;12.17;82.81;97347.66;4958525;28;20121;-93
2022/09/26 07:10:21;;;;;;;13.98;8.48;;;;;;;12.17;82.30;97371.31;4974507;28;20043;-91
2022/09/26 07:12:51;;;;;;;11.45;8.50;;;;;;;11.92;82.54;97367.03;4957541;28;20181;-91
2022/09/26 07:15:19;;;;;;;10.25;8.13;;;;;;;11.90;81.05;97369.09;4941639;28;20054;-91
2022/09/26 07:17:47;;;;;;;13.57;9.35;;;;;;;11.96;79.67;97360.31;4956553;28;20703;-92
2022/09/26 07:20:18;;;;;;;11.60;8.40;;;;;;;11.90;80.34;97358.59;4971474;28;20046;-91
2022/09/26 07:22:45;;;;;;;15.15;9.55;;;;;;;11.87;81.31;97350.34;4974475;28;20058;-90
2022/09/26 07:25:13;;;;;;;15.68;10.43;;;;;;;11.94;77.96;97351.88;4971234;28;20532;-89
2022/09/26 07:27:40;;;;;;;13.63;10.43;;;;;;;12.05;79.79;97366.84;4973207;28;20058;-91
2022/09/26 07:30:15;;;;;;;15.18;9.15;;;;;;;11.93;79.60;97344.97;4957237;28;20644;-92
2022/09/26 07:33:04;;;;;;;12.82;8.77;;;;;;;12.18;78.88;97362.41;4979984;28;20125;-92
2022/09/26 07:35:36;;;;;;;13.75;9.68;;;;;;;12.39;78.72;97359.22;4956178;28;20122;-92
2022/09/26 07:38:04;;;;;;;12.93;9.13;;;;;;;12.63;77.05;97354.75;4939318;28;20407;-92
2022/09/26 07:40:35;;;;;;;13.60;9.25;;;;;;;12.84;78.97;97362.03;4955211;28;20503;-94
2022/09/26 07:43:05;;;;;;;12.27;8.93;;;;;;;12.82;75.54;97350.94;4970686;28;20038;-90
2022/09/26 07:51:30;;;;;;;12.90;9.48;;;;;;;13.22;78.02;97357.28;4955734;28;20051;-92
2022/09/26 07:53:57;;;;;;;13.43;9.13;;;;;;;13.27;79.77;97352.91;4979659;28;20043;-92
2022/09/26 07:56:26;;;;;;;15.18;8.60;;;;;;;13.16;77.90;97343.19;4964003;28;20051;-93
2022/09/26 07:58:55;;;;;;;16.33;8.85;;;;;;;13.25;77.38;97335.72;4948754;28;20065;-92
2022/09/26 08:01:27;;;;;;;11.00;8.07;;;;;;;13.52;75.14;97343.88;4971549;28;20399;-91
2022/09/26 08:03:57;;;;;;;12.57;8.73;;;;;;;13.32;72.83;97357.50;4963276;28;20039;-92
2022/09/26 08:06:37;;;;;;;15.07;8.43;;;;;;;13.36;74.04;97354.13;4971177;28;20079;-92
2022/09/26 08:09:06;;;;;;;12.48;9.50;;;;;;;13.21;71.96;97335.41;4971423;28;20524;-92
2022/09/26 08:11:34;;;;;;;14.13;9.63;;;;;;;13.48;76.27;97340.91;4951808;28;20086;-91
2022/09/26 08:14:06;;;;;;;12.77;9.10;;;;;;;13.64;73.49;97329.59;4970634;28;20035;-92
2022/09/26 08:16:32;;;;;;;12.40;8.65;;;;;;;13.79;76.60;97325.63;4970153;28;20499;-90
2022/09/26 08:19:02;;;;;;;12.95;9.25;;;;;;;13.91;75.48;97334.25;4966746;28;20050;-90
2022/09/26 08:21:29;;;;;;;12.45;8.75;;;;;;;13.85;76.70;97337.84;4972033;28;20043;-91
2022/09/26 08:23:56;;;;;;;14.38;9.60;;;;;;;14.07;74.33;97338.75;4970640;28;20050;-90
2022/09/26 08:26:22;;;;;;;12.23;8.95;;;;;;;13.73;71.65;97342.38;4968142;28;20062;-89
2022/09/26 08:29:04;;;;;;;12.18;8.60;;;;;;;13.60;71.57;97327.69;4970466;28;20046;-92
2022/09/26 08:31:32;;;;;;;13.30;9.20;;;;;;;14.02;73.47;97325.47;4967475;28;20039;-92
2022/09/26 08:33:59;;;;;;;13.77;8.93;;;;;;;14.25;72.55;97329.78;4950597;28;20121;-92
2022/09/26 08:36:26;;;;;;;13.88;9.48;;;;;;;14.26;72.54;97315.53;4969076;28;20093;-91
2022/09/26 08:38:55;;;;;;;10.52;8.88;;;;;;;14.30;70.72;97319.31;4955209;28;20039;-90
2022/09/26 08:41:59;;;;;;;11.98;8.75;;;;;;;14.37;71.43;97338.41;4949810;28;20136;-89
2022/09/26 08:48:45;;;;;;;13.30;9.18;;;;;;;14.39;68.65;97320.50;4943439;28;20471;-90
2022/09/26 08:51:40;;;;;;;14.13;9.48;;;;;;;14.65;69.35;97334.06;4970469;28;20038;-90
2022/09/26 08:54:40;;;;;;;13.15;11.15;;;;;;;14.22;68.20;97327.63;4956556;28;20085;-90
2022/09/26 08:57:31;;;;;;;13.52;10.02;;;;;;;14.72;72.21;97334.69;4953910;28;20142;-90
2022/09/26 08:59:59;;;;;;;15.40;11.02;;;;;;;14.98;70.97;97320.75;4971305;28;20058;-90
2022/09/26 09:02:44;;;;;;;13.98;10.18;;;;;;;15.27;69.50;97328.47;4971066;28;20387;-90
2022/09/26 09:05:24;;;;;;;13.20;9.40;;;;;;;15.42;69.77;97322.56;4971869;28;20050;-90
2022/09/26 09:07:56;;;;;;;11.95;8.55;;;;;;;15.41;70.54;97326.22;4955879;28;20123;-90
2022/09/26 09:11:06;;;;;;;13.68;8.13;;;;;;;14.93;67.33;97325.16;4957383;28;20054;-89
2022/09/26 09:14:04;;;;;;;9.75;7.07;;;;;;;14.67;67.81;97308.22;4948310;28;20042;-90
2022/09/26 09:16:50;;;;;;;12.10;8.77;;;;;;;14.49;67.12;97319.88;4976938;28;20047;-88
2022/09/26 09:19:57;;;;;;;11.27;6.80;;;;;;;14.36;62.77;97304.34;4953334;28;20050;-89
2022/09/26 09:22:40;;;;;;;11.23;6.38;;;;;;;14.12;65.37;97315.09;4975158;28;20129;-90
2022/09/26 09:25:28;;;;;;;7.95;6.07;;;;;;;14.14;65.49;97318.28;4974517;28;20122;-90
2022/09/26 09:28:39;;;;;;;8.18;6.55;;;;;;;14.21;63.37;97286.47;4958375;28;20078;-89
2022/09/26 09:31:14;;;;;;;8.73;6.10;;;;;;;14.53;61.81;97294.59;4975580;28;20556;-89
2022/09/26 09:33:58;;;;;;;7.45;5.82;;;;;;;14.68;61.96;97296.63;4976475;28;20069;-91
2022/09/26 09:36:49;;;;;;;10.52;6.30;;;;;;;14.56;63.38;97286.19;4973082;28;20046;-87
2022/09/26 09:39:32;;;;;;;8.57;5.93;;;;;;;14.51;64.99;97283.47;4973473;28;20070;-88
2022/09/26 09:42:18;;;;;;;7.63;6.15;;;;;;;14.55;67.21;97278.50;4969891;28;20125;-88
2022/09/26 09:45:04;;;;;;;10.63;5.80;;;;;;;14.66;62.97;97283.69;4962074;28;20118;-87
2022/09/26 09:47:37;;;;;;;8.63;5.65;;;;;;;14.81;63.48;97280.41;4974802;28;20043;-89
2022/09/26 09:50:14;;;;;;;8.15;5.53;;;;;;;14.88;61.87;97280.25;4969713;28;20093;-88
2022/09/26 09:53:07;;;;;;;6.93;5.82;;;;;;;14.94;61.45;97276.63;4975376;28;20047;-88
2022/09/26 09:55:58;;;;;;;6.40;5.05;;;;;;;14.86;62.91;97266.47;4965464;28;20042;-87
2022/09/26 09:58:24;;;;;;;;;;;;;;;14.79;60.89;97265.88;4968115;28;20051;-90
2022/09/26 10:01:28;;;;;;;8.30;4.85;;;;;;;14.94;62.04;97263.41;4956590;28;19936;-90
2022/09/26 10:04:07;;;;;;;6.97;4.97;;;;;;;14.93;60.87;97265.25;4964051;28;20141;-88
2022/09/26 10:06:34;;;;;;;6.97;4.75;;;;;;;15.13;62.09;97243.53;4973679;28;20055;-89
2022/09/26 10:09:26;;;;;;;6.93;5.40;;;;;;;15.32;60.42;97256.41;4969846;28;20047;-89
2022/09/26 10:12:15;;;;;;;4.32;3.90;;;;;;;15.09;60.68;97239.78;4973168;28;20054;-88
2022/09/26 10:15:01;;;;;;;6.07;4.00;;;;;;;15.09;61.22;97245.09;4974733;28;20043;-89
2022/09/26 10:17:28;;;;;;;5.13;3.58;;;;;;;15.20;57.64;97238.84;4953122;28;20106;-91
2022/09/26 10:19:56;;;;;;;7.32;3.50;;;;;;;15.22;59.91;97234.09;4961554;28;20043;-90
2022/09/26 10:22:43;;;;;;;4.05;3.30;;;;;;;15.33;57.40;97244.78;4974814;28;20057;-87
2022/09/26 10:25:21;;;;;;;4.13;3.72;;;;;;;15.30;57.00;97234.72;4972471;28;20118;-87
2022/09/26 10:27:54;;;;;;;4.97;3.60;;;;;;;15.38;58.40;97234.25;4966858;28;20054;-89
2022/09/26 10:30:30;;;;;;;5.45;2.95;;;;;;;15.40;55.87;97234.81;4972361;28;20579;-89
2022/09/26 10:33:07;;;;;;;3.67;3.22;;;;;;;15.60;54.97;97223.63;4971364;28;20039;-89
2022/09/26 10:35:48;;;;;;;4.93;3.00;;;;;;;15.78;54.32;97216.13;4973817;28;20043;-89
2022/09/26 10:38:25;;;;;;;3.22;2.22;;;;;;;15.74;54.17;97209.72;4954644;28;20097;-90
2022/09/26 10:41:00;;;;;;;3.55;2.35;;;;;;;15.53;55.95;97219.34;4956357;28;20078;-90
2022/09/26 10:43:36;;;;;;;9.13;2.83;;;;;;;15.42;56.10;97207.09;4953947;28;20077;-89
2022/09/26 10:46:11;;;;;;;5.20;2.55;;;;;;;15.64;52.37;97214.94;4974903;28;20051;-91
2022/09/26 10:48:47;;;;;;;3.50;2.42;;;;;;;15.62;53.91;97224.16;4974078;28;20101;-88
2022/09/26 10:51:27;;;;;;;3.72;2.30;;;;;;;15.34;51.96;97219.94;4967890;28;20046;-88
2022/09/26 10:54:11;;;;;;;4.40;2.63;;;;;;;15.19;54.31;97208.22;4957922;28;20121;-89
2022/09/26 10:56:48;;;;;;;4.45;2.28;;;;;;;15.20;54.92;97204.53;4948912;28;20047;-88
2022/09/26 10:59:17;;;;;;;5.18;2.90;;;;;;;15.16;55.17;97210.53;4969486;28;20062;-87
2022/09/26 11:01:50;;;;;;;4.28;2.80;;;;;;;15.10;55.95;97203.63;4974078;28;20034;-91
2022/09/26 11:07:24;;;;;;;4.82;2.65;;;;;;;15.21;55.06;97200.81;4973131;28;20150;-92
2022/09/26 11:09:58;;;;;;;2.40;2.20;;;;;;;15.29;55.52;97194.28;4974025;28;20055;-91
2022/09/26 11:12:31;;;;;;;3.45;2.60;;;;;;;15.32;58.90;97200.91;4952449;28;20046;-90
2022/09/26 11:15:07;;;;;;;3.03;2.50;;;;;;;15.56;57.51;97191.59;4973680;28;20043;-93
2022/09/26 11:17:46;;;;;;;3.08;2.50;;;;;;;15.83;54.83;97175.69;4956167;28;20055;-91
2022/09/26 11:20:41;;;;;;;3.72;2.22;;;;;;;15.90;54.26;97191.34;4972261;28;20137;-92
2022/09/26 11:23:33;;;;;;;3.38;2.08;;;;;;;15.91;51.89;97187.63;4972630;28;20046;-89
2022/09/26 11:26:43;;;;;;;4.93;2.25;;;;;;;15.85;51.65;97183.38;4973141;28;20042;-92
2022/09/26 11:29:48;;;;;;;3.47;2.00;;;;;;;15.64;52.19;97177.94;4940537;28;20051;-95
2022/09/26 11:32:26;;;;;;;4.38;2.05;;;;;;;15.32;52.54;97177.16;4953871;28;20043;-92
2022/09/26 11:34:53;;;;;;;4.38;1.90;;;;;;;15.32;52.91;97180.59;4970570;28;20045;-92
2022/09/26 11:37:38;;;;;;;3.55;2.13;;;;;;;15.58;54.41;97167.56;4973584;28;20101;-91
2022/09/26 11:40:29;;;;;;;5.18;2.60;;;;;;;16.00;55.74;97181.59;4973247;28;20043;-91
2022/09/26 11:43:59;;;;;;;2.78;2.03;;;;;;;16.13;53.99;97175.03;4961547;28;20133;-91
2022/09/26 11:47:45;;;;;;;3.25;2.08;;;;;;;16.33;56.19;97153.19;4923316;28;20040;-90
2022/09/26 11:50:38;;;;;;;4.25;2.03;;;;;;;16.03;52.54;97145.91;4857090;29;47521;-90
2022/09/26 11:53:27;;;;;;;3.80;2.30;;;;;;;15.90;52.92;97149.81;4870134;29;20568;-91
2022/09/26 11:56:37;;;;;;;3.38;2.50;;;;;;;15.98;52.40;97145.91;4956752;28;20574;-91
2022/09/26 11:59:16;;;;;;;3.72;2.30;;;;;;;15.99;53.44;97142.19;4972250;28;20054;-91
2022/09/26 12:02:07;;;;;;;2.17;1.98;;;;;;;15.98;52.95;97145.91;4972179;28;20067;-91
2022/09/26 12:04:53;;;;;;;3.40;2.05;;;;;;;16.12;55.18;97135.63;4968295;28;20049;-91
2022/09/26 12:07:51;;;;;;;3.05;2.40;;;;;;;16.36;52.94;97120.13;4970340;28;20515;-92
2022/09/26 12:10:38;;;;;;;4.57;2.20;;;;;;;16.33;53.01;97114.28;4968884;28;20043;-92
2022/09/26 12:13:41;;;;;;;3.38;2.53;;;;;;;16.29;53.58;97121.16;4965725;28;20172;-91
2022/09/26 12:16:48;;;;;;;3.38;2.42;;;;;;;16.45;56.07;97115.91;4959135;28;20503;-91
2022/09/26 12:19:46;;;;;;;5.32;2.40;;;;;;;16.50;54.74;97122.03;4969386;28;20038;-91
2022/09/26 12:22:48;;;;;;;4.38;2.40;;;;;;;16.33;55.85;97101.06;4972075;28;20376;-91
2022/09/26 12:25:37;;;;;;;4.65;2.60;;;;;;;16.33;54.06;97108.22;4956138;28;20491;-90
2022/09/26 12:28:44;;;;;;;2.88;2.20;;;;;;;16.24;57.65;97092.03;4966024;28;20101;-92
2022/09/26 12:31:47;;;;;;;4.93;2.70;;;;;;;16.01;55.50;97097.75;4971758;28;20050;-88
2022/09/26 12:34:56;;;;;;;3.50;2.58;;;;;;;15.76;57.04;97093.94;4932002;28;20078;-89
2022/09/26 12:37:56;;;;;;;5.30;2.70;;;;;;;15.51;55.76;97077.94;4929849;29;20527;-88
2022/09/26 12:40:38;;;;;;;5.87;2.80;;;;;;;15.37;56.32;97072.31;4916433;29;20052;-88